Time;durP1;ratioP1;P1;durP2;ratioP2;P2;SDS_P1;SDS_P2;PMS_P1;PMS_P2;Temp;Humidity;BMP_temperature;BMP_pressure;BME280_temperature;BME280_humidity;BME280_pressure;Samples;Min_cycle;Max_cycle;Signal;HPM_P1;HPM_P2
2022/04/09 00:01:03;;;;;;;1.02;0.50;;;2.90;99.90;;;;;;5013577;28;20025;-69
2022/04/09 00:03:29;;;;;;;0.70;0.30;;;3.00;99.90;;;;;;5009884;28;20041;-69
2022/04/09 00:05:55;;;;;;;0.47;0.20;;;3.00;99.90;;;;;;5022839;28;20038;-69
2022/04/09 00:08:20;;;;;;;1.40;0.40;;;3.00;99.90;;;;;;5009657;28;20424;-69
2022/04/09 00:10:46;;;;;;;0.60;0.30;;;3.00;99.90;;;;;;5014252;28;20038;-69
2022/04/09 00:13:12;;;;;;;0.15;0.10;;;3.00;99.90;;;;;;5014614;28;20113;-69
2022/04/09 00:15:41;;;;;;;0.47;0.10;;;3.00;99.90;;;;;;5010459;28;20030;-68
2022/04/09 00:18:07;;;;;;;0.50;0.30;;;2.90;99.90;;;;;;5015994;28;20053;-68
2022/04/09 00:20:33;;;;;;;0.25;0.10;;;2.80;99.90;;;;;;5015089;28;20054;-68
2022/04/09 00:22:58;;;;;;;0.13;0.10;;;2.70;99.90;;;;;;5010882;28;20026;-69
2022/04/09 00:25:24;;;;;;;0.43;0.32;;;2.80;99.90;;;;;;5011585;28;20087;-69
2022/04/09 00:27:51;;;;;;;1.27;0.47;;;2.70;99.90;;;;;;5012536;28;20386;-69
2022/04/09 00:30:17;;;;;;;1.13;0.45;;;2.60;99.90;;;;;;5011566;28;20022;-69
2022/04/09 00:32:43;;;;;;;0.77;0.50;;;2.70;99.90;;;;;;5009569;28;20030;-69
2022/04/09 00:35:09;;;;;;;1.83;0.68;;;2.70;99.90;;;;;;5011253;28;20117;-68
2022/04/09 00:37:44;;;;;;;0.70;0.47;;;2.70;99.90;;;;;;5011155;28;20407;-69
2022/04/09 00:40:13;;;;;;;0.77;0.40;;;2.70;99.90;;;;;;5012986;28;20036;-69
2022/04/09 00:42:42;;;;;;;0.73;0.40;;;2.70;99.90;;;;;;5009119;28;20037;-69
2022/04/09 00:45:11;;;;;;;0.47;0.47;;;2.60;99.90;;;;;;5009604;28;20028;-69
2022/04/09 00:47:37;;;;;;;1.50;0.80;;;2.60;99.90;;;;;;5024908;28;20041;-69
2022/04/09 00:50:05;;;;;;;1.88;1.00;;;2.50;99.90;;;;;;5016277;28;20487;-69
2022/04/09 00:52:34;;;;;;;2.58;1.48;;;2.50;99.90;;;;;;5011811;28;20371;-69
2022/04/09 00:55:03;;;;;;;3.42;0.95;;;2.40;99.90;;;;;;5011894;28;20387;-69
2022/04/09 00:57:34;;;;;;;1.95;1.00;;;2.40;99.90;;;;;;5012030;28;20494;-69
2022/04/09 01:00:11;;;;;;;2.75;1.10;;;2.40;99.90;;;;;;5009811;28;20042;-69
2022/04/09 01:02:40;;;;;;;0.93;0.43;;;2.50;99.90;;;;;;5010389;28;20022;-69
2022/04/09 01:05:09;;;;;;;0.82;0.50;;;2.40;99.90;;;;;;5011930;28;20028;-69
2022/04/09 01:07:35;;;;;;;1.02;0.60;;;2.30;99.90;;;;;;5010917;28;20069;-69
2022/04/09 01:10:03;;;;;;;1.17;0.40;;;2.40;99.90;;;;;;5046558;23;20114;-72
2022/04/09 01:12:29;;;;;;;0.50;0.38;;;2.40;99.90;;;;;;5023287;28;20018;-73
2022/04/09 01:15:12;;;;;;;0.60;0.40;;;2.40;99.90;;;;;;5024303;28;20026;-73
2022/04/09 01:17:39;;;;;;;0.40;0.30;;;2.40;99.90;;;;;;5025041;28;20045;-73
2022/04/09 01:20:22;;;;;;;0.68;0.40;;;2.40;99.90;;;;;;5024969;28;20108;-72
2022/04/09 01:22:48;;;;;;;0.38;0.30;;;2.50;99.90;;;;;;5023421;28;20072;-72
2022/04/09 01:25:16;;;;;;;0.80;0.47;;;2.60;99.90;;;;;;5026922;28;20029;-72
2022/04/09 01:27:42;;;;;;;0.40;0.30;;;2.50;99.90;;;;;;5018757;28;20018;-71
2022/04/09 01:30:09;;;;;;;0.43;0.30;;;2.50;99.90;;;;;;5022652;28;20359;-72
2022/04/09 01:32:34;;;;;;;3.05;1.52;;;2.60;99.90;;;;;;5024627;28;20040;-72
2022/04/09 01:35:06;;;;;;;0.50;0.40;;;2.50;99.90;;;;;;5031351;28;20033;-72
2022/04/09 01:37:32;;;;;;;0.90;0.60;;;2.50;99.90;;;;;;5032681;28;20485;-72
2022/04/09 01:39:58;;;;;;;1.00;0.70;;;2.60;99.90;;;;;;5030104;28;20528;-71
2022/04/09 01:42:26;;;;;;;1.55;0.60;;;2.50;99.90;;;;;;5027633;28;20037;-73
2022/04/09 01:44:53;;;;;;;1.02;0.50;;;2.50;99.90;;;;;;5028511;28;20105;-73
2022/04/09 01:47:18;;;;;;;1.23;0.60;;;2.50;99.90;;;;;;5029979;28;20124;-72
2022/04/09 01:49:44;;;;;;;1.70;1.15;;;2.40;99.90;;;;;;5026055;28;20098;-72
2022/04/09 01:52:09;;;;;;;0.90;0.73;;;2.50;99.90;;;;;;5024086;28;20029;-72
2022/04/09 01:54:38;;;;;;;1.13;0.77;;;2.40;99.90;;;;;;5025361;28;20036;-72
2022/04/09 01:57:04;;;;;;;1.73;1.00;;;2.40;99.90;;;;;;5027688;28;20033;-73
2022/04/09 01:59:30;;;;;;;1.52;0.70;;;2.40;99.90;;;;;;5026830;28;20091;-72
2022/04/09 02:01:58;;;;;;;1.65;0.80;;;2.40;99.90;;;;;;5026498;28;20021;-72
2022/04/09 02:04:25;;;;;;;1.60;1.08;;;2.30;99.90;;;;;;5024766;28;20025;-72
2022/04/09 02:06:50;;;;;;;1.85;1.30;;;2.40;99.90;;;;;;5030245;28;20505;-73
2022/04/09 02:09:22;;;;;;;2.25;0.82;;;2.40;99.90;;;;;;5044095;28;20033;-71
2022/04/09 02:11:57;;;;;;;0.90;0.80;;;2.40;99.90;;;;;;5031563;28;20115;-72
2022/04/09 02:14:22;;;;;;;2.13;1.02;;;2.50;99.90;;;;;;5027874;28;20628;-72
2022/04/09 02:16:48;;;;;;;9.52;4.38;;;2.40;99.90;;;;;;5028049;28;20036;-71
2022/04/09 02:19:14;;;;;;;14.50;6.60;;;2.50;99.90;;;;;;5022014;28;20040;-72
2022/04/09 02:21:39;;;;;;;2.65;1.27;;;2.50;99.90;;;;;;5028255;28;20141;-71
2022/04/09 02:24:08;;;;;;;3.42;1.70;;;2.40;99.90;;;;;;5029134;28;20104;-73
2022/04/09 02:26:46;;;;;;;3.40;1.20;;;2.50;99.90;;;;;;5029563;28;24011;-71
2022/04/09 02:29:17;;;;;;;2.33;1.35;;;2.50;99.90;;;;;;5025760;28;20099;-72
2022/04/09 02:31:49;;;;;;;3.25;1.67;;;2.60;99.90;;;;;;5026634;28;20375;-73
2022/04/09 02:34:20;;;;;;;2.60;1.30;;;2.70;99.90;;;;;;5020500;28;20038;-72
2022/04/09 02:36:52;;;;;;;2.90;1.75;;;2.80;99.90;;;;;;5028270;28;20033;-72
2022/04/09 02:39:21;;;;;;;1.73;1.15;;;2.80;99.90;;;;;;5025167;28;20042;-72
2022/04/09 02:41:50;;;;;;;2.42;1.33;;;2.80;99.90;;;;;;5029311;28;20021;-72
2022/04/09 02:44:17;;;;;;;2.38;1.48;;;2.80;99.90;;;;;;5024784;28;20044;-72
2022/04/09 02:46:44;;;;;;;2.25;1.65;;;2.90;99.90;;;;;;5021652;28;20034;-71
2022/04/09 02:49:13;;;;;;;3.92;2.00;;;2.90;99.90;;;;;;5024003;28;20461;-73
2022/04/09 02:51:39;;;;;;;3.03;1.40;;;2.90;99.90;;;;;;5025920;28;20029;-72
2022/04/09 02:54:15;;;;;;;3.70;1.55;;;2.90;99.90;;;;;;5039931;28;20025;-72
2022/04/09 02:56:46;;;;;;;2.35;1.67;;;3.00;99.90;;;;;;5028381;28;20025;-72
2022/04/09 02:59:13;;;;;;;2.15;1.20;;;3.00;99.90;;;;;;5028490;28;20033;-72
2022/04/09 03:01:47;;;;;;;6.63;1.38;;;3.00;99.90;;;;;;5028817;28;20099;-72
2022/04/09 03:04:16;;;;;;;5.38;1.40;;;3.00;99.90;;;;;;5027178;28;20507;-73
2022/04/09 03:06:51;;;;;;;3.33;1.13;;;3.00;99.90;;;;;;5029652;28;20021;-72
2022/04/09 03:09:22;;;;;;;3.45;1.35;;;3.00;99.90;;;;;;5025378;28;20060;-72
2022/04/09 03:11:51;;;;;;;2.45;1.45;;;2.90;99.90;;;;;;5027647;28;20033;-72
2022/04/09 03:14:17;;;;;;;2.22;1.30;;;2.90;99.90;;;;;;5027158;28;20025;-72
2022/04/09 03:16:45;;;;;;;4.07;1.50;;;3.00;99.90;;;;;;5026601;28;20021;-72
2022/04/09 03:19:11;;;;;;;2.72;1.55;;;3.00;99.90;;;;;;5025354;28;20022;-71
2022/04/09 03:21:36;;;;;;;3.78;1.80;;;3.00;99.90;;;;;;5026307;28;20021;-71
2022/04/09 03:24:11;;;;;;;2.30;1.50;;;3.00;99.90;;;;;;5027233;28;20537;-70
2022/04/09 03:26:43;;;;;;;3.80;2.10;;;2.90;99.90;;;;;;5028268;28;20029;-71
2022/04/09 03:29:21;;;;;;;3.35;2.08;;;2.90;99.90;;;;;;5026908;28;20047;-71
2022/04/09 03:31:47;;;;;;;3.83;1.92;;;2.80;99.90;;;;;;5044403;28;20489;-71
2022/04/09 03:34:16;;;;;;;2.83;1.42;;;2.80;99.90;;;;;;5020941;28;20037;-70
2022/04/09 03:36:44;;;;;;;3.58;2.22;;;2.80;99.90;;;;;;5024551;28;20482;-71
2022/04/09 03:39:10;;;;;;;3.20;1.92;;;2.80;99.90;;;;;;5025579;28;20022;-71
2022/04/09 03:41:36;;;;;;;2.72;1.52;;;2.80;99.90;;;;;;5027640;28;20067;-71
2022/04/09 03:44:08;;;;;;;4.13;1.98;;;2.70;99.90;;;;;;5024415;28;20018;-71
2022/04/09 03:46:34;;;;;;;3.03;1.90;;;2.70;99.90;;;;;;5026675;28;20037;-72
2022/04/09 03:49:09;;;;;;;3.00;1.83;;;2.70;99.90;;;;;;5026960;28;20331;-71
2022/04/09 03:51:35;;;;;;;5.90;1.90;;;2.70;99.90;;;;;;5028888;28;20129;-71
2022/04/09 03:54:07;;;;;;;3.50;2.22;;;2.70;99.90;;;;;;5025281;28;20539;-70
2022/04/09 03:56:40;;;;;;;3.88;1.90;;;2.60;99.90;;;;;;5024286;28;20486;-70
2022/04/09 03:59:09;;;;;;;5.47;2.83;;;2.60;99.90;;;;;;5025661;28;20075;-70
2022/04/09 04:01:38;;;;;;;2.75;1.83;;;2.70;99.90;;;;;;5023306;28;20021;-70
2022/04/09 04:04:13;;;;;;;3.28;1.65;;;2.70;99.90;;;;;;5024691;28;20028;-71
2022/04/09 04:06:44;;;;;;;2.50;1.70;;;2.70;99.90;;;;;;5022600;28;20045;-70
2022/04/09 04:09:14;;;;;;;3.05;2.00;;;2.70;99.90;;;;;;5027096;28;20049;-70
2022/04/09 04:11:40;;;;;;;3.13;1.98;;;2.70;99.90;;;;;;5025860;28;20381;-71
2022/04/09 04:14:09;;;;;;;4.60;1.70;;;2.70;99.90;;;;;;5026419;28;20034;-72
2022/04/09 04:16:38;;;;;;;4.75;2.03;;;2.70;99.90;;;;;;5026200;28;20113;-72
2022/04/09 04:19:13;;;;;;;2.17;1.40;;;2.70;99.90;;;;;;5026445;28;20382;-71
2022/04/09 04:21:39;;;;;;;4.28;2.05;;;2.70;99.90;;;;;;5026012;28;20037;-71
2022/04/09 04:24:08;;;;;;;3.08;1.88;;;2.80;99.90;;;;;;5022375;28;20086;-72
2022/04/09 04:26:51;;;;;;;2.88;1.92;;;2.80;99.90;;;;;;5024980;28;20029;-71
2022/04/09 04:29:23;;;;;;;3.80;1.55;;;2.80;99.90;;;;;;5023462;28;20794;-72
2022/04/09 04:31:54;;;;;;;4.22;2.28;;;2.80;99.90;;;;;;5023984;28;20120;-73
2022/04/09 04:34:20;;;;;;;4.47;2.15;;;2.70;99.90;;;;;;5017696;28;20067;-72
2022/04/09 04:36:46;;;;;;;4.20;1.88;;;2.70;99.90;;;;;;5022000;28;21264;-72
2022/04/09 04:39:14;;;;;;;4.25;2.20;;;2.70;99.90;;;;;;5027692;28;20045;-72
2022/04/09 04:41:40;;;;;;;3.65;1.60;;;2.70;99.90;;;;;;5026890;28;20031;-71
2022/04/09 04:44:10;;;;;;;3.78;1.77;;;2.70;99.90;;;;;;5025688;28;20030;-71
2022/04/09 04:46:38;;;;;;;3.40;1.92;;;2.70;99.90;;;;;;5026209;28;20406;-70
2022/04/09 04:49:03;;;;;;;3.08;2.00;;;2.70;99.90;;;;;;5029013;28;20058;-70
2022/04/09 04:51:32;;;;;;;5.60;2.50;;;2.70;99.90;;;;;;5023838;28;20104;-70
2022/04/09 04:54:03;;;;;;;6.22;2.70;;;2.80;99.90;;;;;;5027269;28;20064;-70
2022/04/09 04:56:37;;;;;;;5.70;2.65;;;2.90;99.90;;;;;;5019410;28;20069;-72
2022/04/09 04:59:09;;;;;;;3.38;2.20;;;2.90;99.90;;;;;;5032312;28;20421;-72
2022/04/09 05:01:40;;;;;;;3.63;2.30;;;3.00;99.90;;;;;;5020922;28;20022;-71
2022/04/09 05:04:11;;;;;;;6.50;2.70;;;3.00;99.90;;;;;;5020417;28;20153;-72
2022/04/09 05:06:40;;;;;;;7.65;2.72;;;3.00;99.90;;;;;;5023479;28;20533;-70
2022/04/09 05:09:06;;;;;;;5.05;2.75;;;3.00;99.90;;;;;;5025556;28;20036;-70
2022/04/09 05:11:31;;;;;;;4.82;2.75;;;3.00;99.90;;;;;;5029121;28;20497;-71
2022/04/09 05:13:57;;;;;;;5.93;3.38;;;3.00;99.90;;;;;;5025628;28;20619;-70
2022/04/09 05:16:23;;;;;;;12.10;3.63;;;3.00;99.90;;;;;;5023528;28;20086;-71
2022/04/09 05:18:48;;;;;;;7.30;3.80;;;2.90;99.90;;;;;;5009968;28;20060;-70
2022/04/09 05:21:17;;;;;;;6.47;4.43;;;3.00;99.90;;;;;;5007025;28;20536;-71
2022/04/09 05:23:52;;;;;;;9.63;5.03;;;3.00;99.90;;;;;;5006895;28;20052;-73
2022/04/09 05:26:23;;;;;;;11.05;5.80;;;3.00;99.90;;;;;;5008396;28;20398;-71
2022/04/09 05:28:58;;;;;;;12.00;5.35;;;3.00;99.90;;;;;;5000894;28;20076;-71
2022/04/09 05:31:27;;;;;;;12.63;7.30;;;3.00;99.90;;;;;;5005614;28;20028;-70
2022/04/09 05:34:06;;;;;;;16.55;7.88;;;3.10;99.90;;;;;;5006875;28;20068;-71
2022/04/09 05:36:34;;;;;;;15.02;7.93;;;3.10;99.90;;;;;;5009800;28;20438;-71
2022/04/09 05:39:00;;;;;;;15.27;7.85;;;3.10;99.90;;;;;;5003473;28;20438;-71
2022/04/09 05:41:28;;;;;;;13.65;8.15;;;3.10;99.90;;;;;;5007045;28;20026;-74
2022/04/09 05:43:54;;;;;;;17.58;8.63;;;3.10;99.90;;;;;;5006628;28;20105;-70
2022/04/09 05:46:26;;;;;;;17.05;9.20;;;3.10;99.90;;;;;;5003649;28;20140;-72
2022/04/09 05:48:54;;;;;;;23.98;10.23;;;3.10;99.90;;;;;;5007653;28;20375;-73
2022/04/09 05:51:20;;;;;;;16.17;8.55;;;3.10;99.90;;;;;;5009862;28;20328;-73
2022/04/09 05:53:45;;;;;;;14.50;8.55;;;3.10;99.90;;;;;;5007563;28;20038;-73
2022/04/09 05:56:14;;;;;;;16.65;8.57;;;3.00;99.90;;;;;;5005331;28;20487;-72
2022/04/09 05:58:42;;;;;;;17.42;9.57;;;3.00;99.90;;;;;;5005854;28;20053;-74
2022/04/09 06:01:10;;;;;;;15.25;9.05;;;3.00;99.90;;;;;;5010443;28;20052;-73
2022/04/09 06:03:39;;;;;;;16.55;7.88;;;3.00;99.90;;;;;;5005654;28;20069;-76
2022/04/09 06:06:09;;;;;;;16.80;10.07;;;3.00;99.90;;;;;;5008995;28;20068;-72
2022/04/09 06:08:34;;;;;;;17.15;9.20;;;3.00;99.90;;;;;;5010640;28;20505;-73
2022/04/09 06:11:00;;;;;;;15.68;8.80;;;3.10;99.90;;;;;;5010991;28;20022;-76
2022/04/09 06:13:29;;;;;;;17.13;8.93;;;3.10;99.90;;;;;;5003669;28;20110;-76
2022/04/09 06:16:05;;;;;;;14.38;8.63;;;3.00;99.90;;;;;;5005056;28;20041;-73
2022/04/09 06:18:31;;;;;;;12.43;8.43;;;3.00;99.90;;;;;;5009369;28;20104;-74
2022/04/09 06:20:56;;;;;;;15.07;9.27;;;3.00;99.90;;;;;;5006361;28;20554;-75
2022/04/09 06:23:22;;;;;;;18.92;8.95;;;2.90;99.90;;;;;;5005323;28;20061;-72
2022/04/09 06:25:48;;;;;;;16.63;9.10;;;2.90;99.90;;;;;;5006842;28;20553;-73
2022/04/09 06:28:14;;;;;;;17.90;8.98;;;2.90;99.90;;;;;;5018409;28;20129;-73
2022/04/09 06:30:39;;;;;;;14.73;8.88;;;2.90;99.90;;;;;;5009753;28;20061;-71
2022/04/09 06:33:11;;;;;;;17.83;10.50;;;2.90;99.90;;;;;;5010862;28;20112;-73
2022/04/09 06:35:36;;;;;;;15.25;9.90;;;3.00;99.90;;;;;;5008507;28;20864;-73
2022/04/09 06:38:02;;;;;;;16.80;9.55;;;3.10;99.90;;;;;;5008489;28;20025;-73
2022/04/09 06:40:34;;;;;;;14.98;8.77;;;3.20;99.90;;;;;;5010252;28;20032;-74
2022/04/09 06:43:00;;;;;;;17.05;9.23;;;3.20;99.90;;;;;;5007937;28;20021;-72
2022/04/09 06:45:25;;;;;;;15.40;9.55;;;3.30;99.90;;;;;;5004532;28;20088;-73
2022/04/09 06:47:51;;;;;;;17.88;10.63;;;3.20;99.90;;;;;;5010183;28;20045;-72
2022/04/09 06:50:20;;;;;;;20.83;9.27;;;3.30;99.90;;;;;;5009140;28;20057;-72
2022/04/09 06:52:48;;;;;;;15.13;8.65;;;3.30;99.90;;;;;;5006593;28;20044;-73
2022/04/09 06:55:20;;;;;;;16.00;8.90;;;3.40;99.90;;;;;;5009248;28;20397;-72
2022/04/09 06:57:46;;;;;;;19.45;8.88;;;3.70;99.90;;;;;;5022947;28;20034;-73
2022/04/09 07:00:16;;;;;;;14.07;7.90;;;3.90;99.90;;;;;;5007851;28;20048;-72
2022/04/09 07:02:45;;;;;;;11.65;7.07;;;4.20;99.90;;;;;;5007028;28;20026;-74
2022/04/09 07:05:14;;;;;;;15.07;8.65;;;4.30;99.90;;;;;;5001226;28;20102;-72
2022/04/09 07:07:39;;;;;;;14.27;7.85;;;4.60;99.90;;;;;;5005199;28;20173;-71
2022/04/09 07:10:10;;;;;;;9.05;6.28;;;4.70;99.90;;;;;;5021652;23;20101;-69
2022/04/09 07:12:39;;;;;;;9.82;5.07;;;4.70;99.90;;;;;;5026172;28;20029;-69
2022/04/09 07:15:06;;;;;;;8.77;4.97;;;4.70;99.90;;;;;;5031983;28;20034;-68
2022/04/09 07:17:38;;;;;;;8.18;5.10;;;4.60;99.90;;;;;;5027628;28;20061;-69
2022/04/09 07:20:08;;;;;;;10.65;5.43;;;4.60;99.90;;;;;;5031921;28;20025;-69
2022/04/09 07:22:37;;;;;;;8.38;5.25;;;4.50;99.90;;;;;;5028589;28;20036;-69
2022/04/09 07:25:05;;;;;;;7.32;4.97;;;4.40;99.90;;;;;;5029121;28;20021;-69
2022/04/09 07:27:39;;;;;;;10.35;5.15;;;4.40;99.90;;;;;;5024185;28;20033;-70
2022/04/09 07:30:07;;;;;;;10.93;6.15;;;4.40;99.90;;;;;;5025793;28;20044;-69
2022/04/09 07:32:32;;;;;;;8.82;5.20;;;4.50;99.90;;;;;;5022528;28;20491;-70
2022/04/09 07:34:58;;;;;;;7.93;5.43;;;4.60;99.90;;;;;;5027062;28;20029;-69
2022/04/09 07:37:24;;;;;;;11.60;6.10;;;4.60;99.90;;;;;;5031696;28;20060;-70
2022/04/09 07:39:49;;;;;;;9.27;4.57;;;4.70;99.90;;;;;;5026991;28;20112;-69
2022/04/09 07:42:15;;;;;;;9.55;3.92;;;4.60;99.90;;;;;;5023620;28;20040;-69
2022/04/09 07:44:41;;;;;;;7.75;3.25;;;4.60;99.90;;;;;;5030185;28;20092;-69
2022/04/09 07:47:06;;;;;;;6.47;3.03;;;4.60;99.90;;;;;;5019177;28;20115;-69
2022/04/09 07:49:32;;;;;;;7.18;3.38;;;4.50;99.90;;;;;;5027718;28;20045;-69
2022/04/09 07:52:00;;;;;;;6.45;3.88;;;4.50;99.90;;;;;;5027479;28;20072;-69
2022/04/09 07:54:29;;;;;;;7.13;3.55;;;4.60;99.90;;;;;;5028479;28;20030;-70
2022/04/09 07:56:55;;;;;;;6.13;3.25;;;4.60;99.90;;;;;;5030820;28;20099;-69
2022/04/09 07:59:30;;;;;;;9.25;3.25;;;4.60;99.90;;;;;;5030359;28;20036;-70
2022/04/09 08:01:59;;;;;;;6.28;3.17;;;4.60;99.90;;;;;;5029319;28;20026;-70
2022/04/09 08:04:24;;;;;;;9.10;3.70;;;4.70;99.90;;;;;;5020966;28;20074;-69
2022/04/09 08:06:53;;;;;;;7.75;3.33;;;4.80;99.90;;;;;;5027680;28;20663;-69
2022/04/09 08:09:18;;;;;;;8.75;3.58;;;4.80;99.90;;;;;;5032427;28;20037;-69
2022/04/09 08:11:45;;;;;;;7.45;3.35;;;4.80;99.90;;;;;;5029186;28;20029;-69
2022/04/09 08:14:11;;;;;;;7.72;2.83;;;4.90;99.90;;;;;;5033507;28;20056;-69
2022/04/09 08:16:38;;;;;;;5.32;2.88;;;5.00;99.90;;;;;;5031414;28;20068;-69
2022/04/09 08:19:04;;;;;;;4.05;2.40;;;5.00;99.90;;;;;;5031674;28;20091;-69
2022/04/09 08:21:35;;;;;;;11.43;2.88;;;5.00;99.90;;;;;;5028307;28;20033;-69
2022/04/09 08:24:01;;;;;;;7.15;2.92;;;5.10;99.90;;;;;;5023943;28;20056;-69
2022/04/09 08:26:29;;;;;;;5.53;2.42;;;5.10;99.90;;;;;;5027088;28;20501;-71
2022/04/09 08:29:03;;;;;;;6.22;2.50;;;5.20;99.90;;;;;;5026951;28;20089;-70
2022/04/09 08:31:28;;;;;;;10.13;2.78;;;5.20;99.90;;;;;;5029275;28;20733;-70
2022/04/09 08:34:03;;;;;;;11.70;2.95;;;5.20;99.90;;;;;;5028640;28;20033;-69
2022/04/09 08:36:28;;;;;;;7.18;2.22;;;5.30;99.90;;;;;;5029739;28;20034;-69
2022/04/09 08:38:58;;;;;;;6.32;2.65;;;5.30;99.90;;;;;;5023543;28;20076;-70
2022/04/09 08:41:24;;;;;;;6.13;2.92;;;5.40;99.90;;;;;;5035797;28;20028;-70
2022/04/09 08:43:50;;;;;;;10.07;2.38;;;5.60;99.90;;;;;;5026350;28;20057;-70
2022/04/09 08:46:28;;;;;;;6.25;2.45;;;5.80;99.90;;;;;;5027911;28;20557;-70
2022/04/09 08:48:57;;;;;;;8.18;3.15;;;5.90;99.90;;;;;;5029376;28;20680;-69
2022/04/09 08:51:26;;;;;;;7.00;2.50;;;5.70;99.90;;;;;;5025174;28;21317;-70
2022/04/09 08:53:56;;;;;;;3.85;2.05;;;5.70;99.90;;;;;;5026435;28;20051;-73
2022/04/09 08:56:21;;;;;;;4.38;2.22;;;5.70;99.90;;;;;;5023774;28;20026;-70
2022/04/09 08:58:47;;;;;;;5.03;2.25;;;5.80;99.90;;;;;;5025958;28;20075;-70
2022/04/09 09:01:16;;;;;;;6.40;2.15;;;6.00;99.90;;;;;;5033522;28;20974;-69
2022/04/09 09:03:41;;;;;;;4.57;2.13;;;6.30;99.90;;;;;;5028181;28;20024;-70
2022/04/09 09:06:30;;;;;;;5.18;2.17;;;6.50;99.90;;;;;;5029943;28;20037;-70
2022/04/09 09:09:00;;;;;;;5.10;2.10;;;6.80;99.90;;;;;;5029027;28;20025;-69
2022/04/09 09:11:30;;;;;;;5.88;2.30;;;6.90;99.90;;;;;;5024603;28;20033;-70
2022/04/09 09:13:57;;;;;;;7.40;2.42;;;7.10;99.90;;;;;;5025560;28;20040;-69
2022/04/09 09:16:25;;;;;;;6.63;3.35;;;7.10;99.90;;;;;;5025283;28;20034;-69
2022/04/09 09:18:53;;;;;;;7.97;3.00;;;7.10;99.90;;;;;;5027303;28;20025;-69
2022/04/09 09:21:37;;;;;;;6.00;2.85;;;7.10;99.90;;;;;;5024492;28;20038;-69
2022/04/09 09:24:13;;;;;;;4.75;2.45;;;7.10;99.90;;;;;;5027779;28;20887;-71
2022/04/09 09:26:44;;;;;;;6.53;2.20;;;7.00;99.90;;;;;;5019527;28;20038;-71
2022/04/09 09:29:22;;;;;;;10.63;2.92;;;7.00;99.90;;;;;;5030922;28;20025;-71
2022/04/09 09:31:50;;;;;;;8.15;3.22;;;7.00;99.90;;;;;;5030877;28;20481;-69
2022/04/09 09:34:21;;;;;;;9.18;3.10;;;7.10;99.90;;;;;;5029725;28;20048;-69
2022/04/09 09:36:48;;;;;;;6.47;2.22;;;7.20;99.90;;;;;;5025561;28;20091;-70
2022/04/09 09:39:21;;;;;;;9.85;2.67;;;7.20;99.90;;;;;;5031315;28;20017;-70
2022/04/09 09:41:55;;;;;;;5.65;2.63;;;7.30;99.90;;;;;;5031444;28;20047;-69
2022/04/09 09:44:31;;;;;;;10.70;3.40;;;7.20;99.90;;;;;;5028253;28;20473;-69
2022/04/09 09:47:08;;;;;;;6.55;2.13;;;7.20;99.90;;;;;;5026385;28;20033;-70
2022/04/09 09:49:58;;;;;;;6.25;1.60;;;7.40;99.90;;;;;;5029519;28;20028;-71
2022/04/09 09:52:34;;;;;;;4.43;1.45;;;7.40;99.90;;;;;;5026852;28;20036;-70
2022/04/09 09:55:10;;;;;;;7.55;1.42;;;7.40;99.90;;;;;;5030714;28;20026;-70
2022/04/09 09:57:38;;;;;;;4.32;2.15;;;7.30;99.90;;;;;;5030640;28;20035;-71
2022/04/09 10:00:06;;;;;;;6.72;2.00;;;7.00;99.90;;;;;;5028036;28;20013;-70
2022/04/09 10:02:37;;;;;;;5.72;2.20;;;7.00;99.90;;;;;;5029034;28;20028;-71
2022/04/09 10:05:03;;;;;;;9.43;2.40;;;7.00;99.90;;;;;;5025175;28;20117;-70
2022/04/09 10:07:29;;;;;;;4.45;1.85;;;7.10;99.90;;;;;;5033150;28;20037;-70
2022/04/09 10:09:55;;;;;;;6.50;1.80;;;7.30;99.90;;;;;;5028563;28;20029;-69
2022/04/09 10:12:23;;;;;;;9.48;2.42;;;7.40;99.90;;;;;;5032279;28;20116;-68
2022/04/09 10:14:56;;;;;;;4.47;1.73;;;7.70;99.90;;;;;;5031317;28;20497;-71
2022/04/09 10:17:24;;;;;;;6.07;1.80;;;7.90;99.90;;;;;;5032488;28;20480;-68
2022/04/09 10:20:02;;;;;;;7.53;1.92;;;7.90;99.10;;;;;;5026111;28;20033;-70
2022/04/09 10:22:48;;;;;;;8.23;2.05;;;8.00;99.60;;;;;;5024307;28;20032;-70
2022/04/09 10:25:18;;;;;;;4.32;1.67;;;8.10;99.90;;;;;;5028724;28;20120;-71
2022/04/09 10:27:53;;;;;;;8.00;1.92;;;8.10;99.90;;;;;;5029807;28;20097;-71
2022/04/09 10:30:24;;;;;;;7.07;2.00;;;8.00;99.90;;;;;;5030710;28;20077;-70
2022/04/09 10:32:59;;;;;;;5.00;1.95;;;7.80;99.90;;;;;;5032655;28;20037;-70
2022/04/09 10:35:38;;;;;;;9.43;2.25;;;7.70;99.90;;;;;;5029174;28;20041;-70
2022/04/09 10:38:07;;;;;;;8.70;2.45;;;7.70;99.90;;;;;;5033463;28;20041;-70
2022/04/09 10:40:56;;;;;;;10.30;1.90;;;7.60;99.90;;;;;;5029447;28;20389;-70
2022/04/09 10:43:25;;;;;;;7.40;2.33;;;7.50;99.90;;;;;;5025272;28;21382;-70
2022/04/09 10:46:04;;;;;;;7.72;2.33;;;7.40;99.90;;;;;;5025147;28;20460;-69
2022/04/09 10:48:35;;;;;;;9.32;2.08;;;7.30;99.80;;;;;;5027215;28;20133;-70
2022/04/09 10:51:02;;;;;;;8.07;2.50;;;7.30;99.90;;;;;;5026574;28;20029;-68
2022/04/09 10:53:30;;;;;;;4.97;1.80;;;7.50;99.90;;;;;;5030389;28;20083;-69
2022/04/09 10:56:25;;;;;;;5.32;1.77;;;7.60;99.90;;;;;;5024929;28;20022;-70
2022/04/09 10:59:13;;;;;;;6.80;1.55;;;7.70;99.50;;;;;;5033881;28;20048;-69
2022/04/09 11:01:50;;;;;;;6.15;1.38;;;7.70;97.20;;;;;;5031798;28;20037;-69
2022/04/09 11:04:28;;;;;;;5.88;1.63;;;7.90;96.00;;;;;;5027988;28;20084;-69
2022/04/09 11:07:00;;;;;;;4.00;1.40;;;8.10;97.20;;;;;;5029209;28;20074;-68
2022/04/09 11:09:26;;;;;;;5.97;2.05;;;8.20;97.50;;;;;;5031246;28;20102;-69
2022/04/09 11:12:02;;;;;;;6.93;1.70;;;8.40;97.80;;;;;;5029000;28;20033;-69
2022/04/09 11:14:27;;;;;;;4.32;1.33;;;8.30;96.60;;;;;;5033834;28;20029;-69
2022/04/09 11:16:53;;;;;;;5.88;1.65;;;8.20;95.70;;;;;;5027346;28;20785;-69
2022/04/09 11:19:22;;;;;;;7.35;2.00;;;8.20;96.40;;;;;;5030243;28;20029;-69
2022/04/09 11:21:50;;;;;;;9.43;3.95;;;8.20;97.20;;;;;;5019426;28;20033;-69
2022/04/09 11:24:17;;;;;;;8.40;3.00;;;8.30;97.90;;;;;;5034238;28;20486;-69
2022/04/09 11:26:54;;;;;;;7.13;2.45;;;8.20;95.60;;;;;;5030983;28;20038;-69
2022/04/09 11:29:20;;;;;;;6.22;1.90;;;8.30;96.20;;;;;;5032957;28;20057;-71
2022/04/09 11:31:47;;;;;;;7.72;1.50;;;8.50;96.20;;;;;;5028826;28;20088;-68
2022/04/09 11:34:13;;;;;;;5.20;1.77;;;8.60;94.90;;;;;;5025021;28;20025;-70
2022/04/09 11:36:39;;;;;;;6.85;1.90;;;8.50;95.50;;;;;;5031264;28;20038;-69
2022/04/09 11:39:04;;;;;;;7.28;1.60;;;8.30;96.10;;;;;;5031864;28;20474;-69
2022/04/09 11:41:30;;;;;;;8.48;3.38;;;8.40;95.60;;;;;;5024190;28;20109;-70
2022/04/09 11:43:56;;;;;;;7.25;2.28;;;8.40;95.60;;;;;;5025642;28;20100;-69
2022/04/09 11:46:22;;;;;;;4.40;1.45;;;8.60;93.50;;;;;;5029022;28;22269;-70
2022/04/09 11:49:00;;;;;;;7.82;1.75;;;8.60;93.00;;;;;;5030308;28;20030;-69
2022/04/09 11:51:26;;;;;;;4.78;2.30;;;8.70;91.50;;;;;;5027023;28;20037;-69
2022/04/09 11:53:52;;;;;;;5.97;1.55;;;8.80;90.00;;;;;;5026276;28;20030;-70
2022/04/09 11:56:17;;;;;;;5.32;1.88;;;8.90;89.00;;;;;;5031831;28;20083;-69
2022/04/09 11:58:43;;;;;;;5.47;1.60;;;8.90;88.80;;;;;;5027429;28;20025;-69
2022/04/09 12:01:19;;;;;;;4.22;1.50;;;8.80;83.40;;;;;;5027030;28;20033;-70
2022/04/09 12:03:51;;;;;;;4.90;1.60;;;8.80;86.40;;;;;;5024429;28;20018;-70
2022/04/09 12:06:17;;;;;;;2.38;0.90;;;8.80;87.40;;;;;;5028032;28;20056;-69
2022/04/09 12:08:44;;;;;;;6.10;1.20;;;8.90;84.00;;;;;;5027351;28;20559;-69
2022/04/09 12:11:20;;;;;;;3.03;1.27;;;8.70;81.60;;;;;;5031017;28;20183;-69
2022/04/09 12:13:46;;;;;;;3.03;1.35;;;8.70;85.70;;;;;;5024666;28;20156;-69
2022/04/09 12:16:19;;;;;;;7.80;2.60;;;8.60;88.10;;;;;;5027001;28;20037;-69
2022/04/09 12:18:46;;;;;;;4.85;1.60;;;8.50;91.30;;;;;;5029567;28;20070;-69
2022/04/09 12:21:27;;;;;;;3.30;1.23;;;8.50;86.50;;;;;;5023832;28;20046;-69
2022/04/09 12:24:07;;;;;;;10.40;1.20;;;8.40;83.30;;;;;;5026313;28;20036;-69
2022/04/09 12:26:42;;;;;;;6.38;1.60;;;8.40;86.20;;;;;;5031122;28;20116;-69
2022/04/09 12:29:17;;;;;;;4.78;1.30;;;8.40;85.30;;;;;;5028653;28;20032;-68
2022/04/09 12:31:51;;;;;;;5.25;1.65;;;8.40;86.50;;;;;;5030791;28;20083;-68
2022/04/09 12:34:18;;;;;;;5.20;1.60;;;8.30;87.70;;;;;;5031406;28;20474;-69
2022/04/09 12:37:09;;;;;;;5.40;1.42;;;8.30;85.30;;;;;;5031989;28;20026;-68
2022/04/09 12:39:37;;;;;;;3.67;1.30;;;8.30;85.30;;;;;;5029247;28;20059;-69
2022/04/09 12:42:12;;;;;;;5.35;1.92;;;8.40;84.70;;;;;;5028123;28;20028;-69
2022/04/09 12:44:38;;;;;;;6.60;2.33;;;8.50;86.20;;;;;;5026678;28;20112;-69
2022/04/09 12:47:10;;;;;;;5.97;1.33;;;8.60;85.10;;;;;;5028395;28;20108;-69
2022/04/09 12:49:42;;;;;;;6.25;1.27;;;8.60;85.50;;;;;;5026045;28;20559;-69
2022/04/09 12:52:12;;;;;;;4.93;1.00;;;8.70;83.50;;;;;;5021885;28;20044;-68
2022/04/09 12:54:39;;;;;;;2.65;1.17;;;8.70;81.10;;;;;;5031833;28;20057;-69
2022/04/09 12:57:17;;;;;;;7.30;1.95;;;8.80;81.30;;;;;;5029712;28;20064;-68
2022/04/09 12:59:46;;;;;;;6.65;1.60;;;8.80;80.80;;;;;;5025535;28;20028;-69
2022/04/09 13:02:18;;;;;;;2.63;1.25;;;9.00;81.80;;;;;;5029540;28;20041;-68
2022/04/09 13:04:53;;;;;;;5.57;1.67;;;9.00;83.20;;;;;;5030792;28;20033;-69
2022/04/09 13:07:18;;;;;;;4.03;1.20;;;9.10;82.60;;;;;;5025890;28;20025;-68